Time;durP1;ratioP1;P1;durP2;ratioP2;P2;SDS_P1;SDS_P2;PMS_P1;PMS_P2;Temp;Humidity;BMP_temperature;BMP_pressure;BME280_temperature;BME280_humidity;BME280_pressure;Samples;Min_cycle;Max_cycle;Signal;HPM_P1;HPM_P2
2022/01/30 00:01:23;;;;;;;17.07;4.80;;;8.10;99.90;;;;;;5087191;28;20757;-42
2022/01/30 00:03:49;;;;;;;11.03;3.80;;;7.90;99.90;;;;;;5088457;28;20287;-41
2022/01/30 00:06:15;;;;;;;18.37;4.20;;;7.70;99.90;;;;;;5085653;28;20200;-40
2022/01/30 00:08:40;;;;;;;19.23;4.20;;;7.80;99.90;;;;;;5084562;28;20184;-40
2022/01/30 00:11:14;;;;;;;14.20;3.87;;;7.80;99.90;;;;;;5090315;28;20199;-40
2022/01/30 00:13:39;;;;;;;13.53;4.20;;;7.60;99.90;;;;;;5090039;28;20196;-41
2022/01/30 00:16:08;;;;;;;10.17;3.87;;;7.80;99.90;;;;;;5090519;28;20417;-42
2022/01/30 00:21:33;;;;;;;11.20;2.90;;;7.70;99.90;;;;;;5086199;28;20434;-40
2022/01/30 00:24:05;;;;;;;14.60;3.87;;;7.90;99.90;;;;;;5086981;28;21086;-41
2022/01/30 00:26:33;;;;;;;12.30;3.47;;;8.00;99.90;;;;;;5090154;28;20422;-40
2022/01/30 00:28:59;;;;;;;11.47;4.63;;;7.60;99.90;;;;;;5077661;28;20521;-40
2022/01/30 00:31:26;;;;;;;9.50;4.47;;;7.80;99.90;;;;;;5090106;28;20574;-42
2022/01/30 00:33:52;;;;;;;11.00;3.60;;;7.80;99.90;;;;;;5090575;28;20486;-40
2022/01/30 00:36:18;;;;;;;19.73;3.20;;;7.70;99.90;;;;;;5087439;28;20418;-40
2022/01/30 00:38:44;;;;;;;15.30;3.77;;;7.80;99.90;;;;;;5083923;28;20509;-43
2022/01/30 00:41:10;;;;;;;11.20;3.10;;;7.50;99.90;;;;;;5089383;28;20357;-40
2022/01/30 00:43:36;;;;;;;14.50;3.70;;;7.40;99.90;;;;;;5086980;28;20437;-40
2022/01/30 00:46:02;;;;;;;18.40;4.47;;;7.30;99.90;;;;;;5088806;28;20184;-42
2022/01/30 00:48:27;;;;;;;17.97;4.43;;;7.40;99.90;;;;;;5086476;28;20780;-40
2022/01/30 00:50:53;;;;;;;8.03;3.53;;;7.50;99.90;;;;;;5089558;28;20572;-41
2022/01/30 00:53:19;;;;;;;15.43;3.80;;;7.60;99.90;;;;;;5079909;28;20192;-41
2022/01/30 00:55:45;;;;;;;10.13;3.30;;;7.70;99.90;;;;;;5089794;28;20763;-41
2022/01/30 00:58:11;;;;;;;12.20;3.47;;;7.40;99.90;;;;;;5088627;28;20419;-40
2022/01/30 01:00:37;;;;;;;8.77;3.50;;;7.50;99.90;;;;;;5087815;28;20430;-40
2022/01/30 01:03:03;;;;;;;14.63;3.60;;;7.30;99.90;;;;;;5089707;28;20437;-42
2022/01/30 01:05:30;;;;;;;17.20;5.13;;;7.30;99.90;;;;;;5090023;28;20302;-40
2022/01/30 01:07:59;;;;;;;8.23;2.73;;;7.20;99.90;;;;;;5083348;28;20187;-40
2022/01/30 01:10:40;;;;;;;11.87;3.70;;;7.30;99.90;;;;;;5087799;28;20419;-44
2022/01/30 01:23:56;;;;;;;16.83;4.30;;;7.50;99.90;;;;;;5080690;28;20971;-41
2022/01/30 01:26:23;;;;;;;12.03;3.07;;;7.60;99.90;;;;;;5067921;28;20432;-41
2022/01/30 01:28:50;;;;;;;13.40;3.70;;;7.30;99.90;;;;;;5089015;28;20823;-40
2022/01/30 01:31:16;;;;;;;14.30;3.90;;;7.40;99.90;;;;;;5088340;28;20425;-41
2022/01/30 01:36:11;;;;;;;17.93;4.10;;;7.50;99.90;;;;;;5089573;28;20794;-42
2022/01/30 01:38:37;;;;;;;14.17;3.60;;;7.50;99.90;;;;;;5078603;28;21391;-40
2022/01/30 01:41:02;;;;;;;17.07;3.93;;;7.40;99.90;;;;;;5088181;28;20454;-42
2022/01/30 01:43:28;;;;;;;15.00;4.20;;;7.50;99.90;;;;;;5089203;28;20309;-41
2022/01/30 01:45:56;;;;;;;15.50;3.30;;;7.50;99.90;;;;;;5088678;28;20285;-40
2022/01/30 01:48:22;;;;;;;15.00;3.17;;;7.40;99.90;;;;;;5089373;28;20272;-44
2022/01/30 01:51:03;;;;;;;14.77;3.80;;;7.20;99.90;;;;;;5088459;28;20521;-41
2022/01/30 01:53:29;;;;;;;19.77;5.40;;;7.30;99.90;;;;;;5080979;28;20192;-41
2022/01/30 01:55:55;;;;;;;12.33;4.17;;;7.40;99.90;;;;;;5088337;28;20798;-41
2022/01/30 01:58:24;;;;;;;15.40;4.00;;;7.50;99.90;;;;;;5088426;28;20545;-41
2022/01/30 02:00:49;;;;;;;14.77;3.80;;;7.40;99.90;;;;;;5088501;28;20192;-40
2022/01/30 02:03:17;;;;;;;18.47;5.37;;;7.10;99.90;;;;;;5089236;28;20517;-40
2022/01/30 02:05:48;;;;;;;17.47;4.40;;;7.20;99.90;;;;;;5088880;28;20204;-41
2022/01/30 02:11:15;;;;;;;10.83;3.33;;;6.90;99.90;;;;;;5087272;28;20516;-41
2022/01/30 02:25:15;;;;;;;21.37;4.60;;;7.10;99.90;;;;;;5081078;28;20968;-41
2022/01/30 02:27:04;;;;;;;14.67;4.30;;;7.20;99.90;;;;;;5076853;28;20841;-41
2022/01/30 02:29:30;;;;;;;19.20;4.27;;;7.30;99.90;;;;;;5088295;28;20512;-41
2022/01/30 02:31:58;;;;;;;18.53;3.73;;;7.30;99.90;;;;;;5087853;28;20999;-41
2022/01/30 02:34:29;;;;;;;21.60;4.53;;;7.20;99.90;;;;;;5088524;28;20577;-40
2022/01/30 02:36:55;;;;;;;14.27;4.07;;;7.20;99.90;;;;;;5087224;28;20422;-41
2022/01/30 02:39:22;;;;;;;17.30;4.87;;;7.10;99.90;;;;;;5077417;28;20427;-40
2022/01/30 02:41:48;;;;;;;17.70;4.47;;;7.00;99.90;;;;;;5087525;28;20426;-41
2022/01/30 02:46:45;;;;;;;16.70;5.37;;;6.80;99.90;;;;;;5087924;28;20700;-41
2022/01/30 02:51:51;;;;;;;15.53;4.33;;;6.70;99.90;;;;;;5087813;28;20423;-42
2022/01/30 02:54:18;;;;;;;17.13;4.70;;;6.90;99.90;;;;;;5081019;28;20449;-40
2022/01/30 02:56:43;;;;;;;14.00;4.37;;;6.90;99.90;;;;;;5079540;28;20453;-43
2022/01/30 02:59:10;;;;;;;22.33;7.17;;;6.80;99.90;;;;;;5087637;28;20908;-41
2022/01/30 03:01:36;;;;;;;18.10;4.33;;;6.60;99.90;;;;;;5087376;28;20265;-42
2022/01/30 03:04:02;;;;;;;15.53;4.30;;;6.80;99.90;;;;;;5087465;28;20466;-46
2022/01/30 03:06:28;;;;;;;18.87;4.90;;;6.70;99.90;;;;;;5086394;28;20908;-42
2022/01/30 03:08:54;;;;;;;15.07;4.73;;;6.70;99.90;;;;;;5079410;28;20970;-40
2022/01/30 03:11:20;;;;;;;27.90;6.50;;;6.60;99.90;;;;;;5086951;28;20426;-44
2022/01/30 03:13:46;;;;;;;17.73;5.00;;;6.50;99.90;;;;;;5087988;28;20184;-41
2022/01/30 03:16:12;;;;;;;18.93;4.40;;;6.70;99.90;;;;;;5086278;28;20426;-41
2022/01/30 03:18:38;;;;;;;9.87;3.47;;;6.70;99.90;;;;;;5087630;28;20422;-40
2022/01/30 03:21:04;;;;;;;17.00;3.70;;;6.70;99.90;;;;;;5086724;28;20433;-40
2022/01/30 03:23:30;;;;;;;12.20;4.23;;;6.80;99.90;;;;;;5077653;28;20193;-41
2022/01/30 03:25:59;;;;;;;19.27;4.83;;;6.80;99.90;;;;;;5087136;28;20466;-43
2022/01/30 03:28:25;;;;;;;14.90;3.90;;;6.70;99.90;;;;;;5087685;28;20800;-42
2022/01/30 03:30:55;;;;;;;11.47;4.50;;;6.60;99.90;;;;;;5086635;28;20466;-40
2022/01/30 03:33:21;;;;;;;15.70;3.53;;;6.60;99.90;;;;;;5087419;28;20427;-43
2022/01/30 03:35:47;;;;;;;15.00;4.00;;;6.50;99.90;;;;;;5087213;28;20802;-40
2022/01/30 03:38:14;;;;;;;12.03;3.30;;;6.60;99.90;;;;;;5080922;28;20439;-41
2022/01/30 03:40:40;;;;;;;15.63;4.57;;;6.50;99.90;;;;;;5086471;28;20180;-42
2022/01/30 03:43:06;;;;;;;21.80;5.47;;;6.70;99.90;;;;;;5087303;28;20428;-40
2022/01/30 03:45:31;;;;;;;15.80;4.90;;;6.50;99.90;;;;;;5087190;28;20707;-41
2022/01/30 03:47:57;;;;;;;16.67;4.73;;;6.70;99.90;;;;;;5087339;28;20188;-40
2022/01/30 03:50:23;;;;;;;20.57;5.63;;;6.60;99.90;;;;;;5085792;28;20478;-40
2022/01/30 03:52:50;;;;;;;17.93;4.30;;;6.70;99.90;;;;;;5083848;28;20547;-41
2022/01/30 03:55:15;;;;;;;19.87;4.53;;;7.00;99.90;;;;;;5076473;28;20433;-40
2022/01/30 03:57:41;;;;;;;14.10;3.13;;;6.90;99.90;;;;;;5086910;28;20446;-41
2022/01/30 04:00:08;;;;;;;10.80;4.30;;;7.00;99.90;;;;;;5086700;28;20529;-40
2022/01/30 04:02:34;;;;;;;20.00;4.20;;;7.10;99.90;;;;;;5087032;28;20413;-40
2022/01/30 04:05:00;;;;;;;16.23;4.70;;;6.90;99.90;;;;;;5087513;28;20476;-40
2022/01/30 04:07:26;;;;;;;22.10;4.70;;;7.00;99.90;;;;;;5084650;28;20790;-40
2022/01/30 04:09:52;;;;;;;16.63;3.97;;;6.90;99.90;;;;;;5084139;28;20184;-40
2022/01/30 04:12:18;;;;;;;19.57;4.00;;;6.70;99.90;;;;;;5085557;28;20414;-42
2022/01/30 04:14:45;;;;;;;17.60;5.10;;;6.60;99.90;;;;;;5087227;28;20491;-40
2022/01/30 04:17:11;;;;;;;11.40;3.13;;;6.70;99.90;;;;;;5086821;28;20438;-43
2022/01/30 04:19:37;;;;;;;14.70;4.20;;;6.60;99.90;;;;;;5087612;28;20517;-40
2022/01/30 04:22:03;;;;;;;15.83;4.60;;;6.90;99.90;;;;;;5090296;28;20934;-40
2022/01/30 04:24:29;;;;;;;13.17;4.23;;;6.40;99.90;;;;;;5077704;28;20470;-41
2022/01/30 04:26:54;;;;;;;15.30;3.97;;;6.60;99.90;;;;;;5090520;28;20422;-42
2022/01/30 04:29:20;;;;;;;22.03;4.03;;;6.60;99.90;;;;;;5090768;28;20277;-41
2022/01/30 04:31:49;;;;;;;13.60;3.63;;;6.50;99.90;;;;;;5089912;28;20648;-40
2022/01/30 04:34:15;;;;;;;16.87;3.07;;;6.30;99.90;;;;;;5090302;28;20912;-42
2022/01/30 04:36:55;;;;;;;14.60;3.40;;;6.20;99.90;;;;;;5090307;28;20782;-40
2022/01/30 05:07:34;;;;;;;11.10;3.67;;;6.30;99.90;;;;;;5089563;28;20472;-41
2022/01/30 05:10:00;;;;;;;16.03;3.23;;;6.40;99.90;;;;;;5078837;28;20483;-41
2022/01/30 05:12:33;;;;;;;13.70;3.40;;;6.70;99.90;;;;;;5089486;28;20423;-41
2022/01/30 05:14:59;;;;;;;12.83;2.77;;;6.60;99.90;;;;;;5089669;28;20196;-40
2022/01/30 05:17:24;;;;;;;15.80;3.47;;;6.40;99.90;;;;;;5088395;28;20433;-40
2022/01/30 05:19:50;;;;;;;13.73;3.60;;;6.60;99.90;;;;;;5089252;28;20430;-40
2022/01/30 05:22:16;;;;;;;14.23;5.53;;;6.80;99.90;;;;;;5089315;28;20659;-40
2022/01/30 05:24:42;;;;;;;15.90;3.30;;;6.60;99.90;;;;;;5077204;28;20216;-42
2022/01/30 05:27:08;;;;;;;14.00;2.80;;;6.50;99.90;;;;;;5089334;28;20542;-43
2022/01/30 05:29:34;;;;;;;12.43;3.23;;;6.70;99.90;;;;;;5088976;28;20430;-40
2022/01/30 05:32:00;;;;;;;17.23;3.70;;;6.60;99.90;;;;;;5088184;28;20434;-40
2022/01/30 05:34:26;;;;;;;14.07;3.77;;;6.70;99.90;;;;;;5088551;28;20415;-40
2022/01/30 05:36:52;;;;;;;12.43;3.17;;;6.70;99.90;;;;;;5089089;28;20426;-41
2022/01/30 05:39:18;;;;;;;10.60;4.00;;;6.40;99.90;;;;;;5078866;28;20438;-43
2022/01/30 05:41:44;;;;;;;12.00;2.50;;;6.50;99.90;;;;;;5088547;28;20510;-43
2022/01/30 05:44:13;;;;;;;13.53;4.13;;;6.50;99.90;;;;;;5089301;28;20557;-41
2022/01/30 05:46:49;;;;;;;13.73;3.23;;;6.20;99.90;;;;;;5088884;28;20468;-42
2022/01/30 05:49:16;;;;;;;12.70;3.53;;;6.40;99.90;;;;;;5087847;28;20936;-43
2022/01/30 05:51:41;;;;;;;12.90;3.57;;;6.30;99.90;;;;;;5088177;28;20497;-46
2022/01/30 05:54:07;;;;;;;14.47;3.47;;;6.40;99.90;;;;;;5080927;28;20862;-40
2022/01/30 05:56:33;;;;;;;10.93;2.80;;;6.50;99.90;;;;;;5087601;28;20847;-45
2022/01/30 05:59:03;;;;;;;7.77;2.77;;;6.30;99.90;;;;;;5088852;28;20968;-41
2022/01/30 06:01:29;;;;;;;14.57;3.63;;;6.50;99.90;;;;;;5088486;28;20426;-44
2022/01/30 06:03:54;;;;;;;21.43;2.90;;;6.50;99.90;;;;;;5088674;28;20769;-41
2022/01/30 06:06:20;;;;;;;8.37;2.80;;;6.50;99.90;;;;;;5088017;28;20449;-40
2022/01/30 06:08:58;;;;;;;14.90;3.33;;;6.60;99.90;;;;;;5083072;28;20199;-45
2022/01/30 06:11:24;;;;;;;13.53;4.10;;;6.40;99.90;;;;;;5085493;28;20180;-42
2022/01/30 06:13:49;;;;;;;12.73;2.80;;;6.50;99.90;;;;;;5088535;28;20793;-43
2022/01/30 06:16:15;;;;;;;13.07;3.90;;;6.30;99.90;;;;;;5087377;28;20195;-43
2022/01/30 06:18:41;;;;;;;12.30;4.07;;;6.40;99.90;;;;;;5088117;28;20245;-41
2022/01/30 06:21:07;;;;;;;18.47;3.97;;;6.40;99.90;;;;;;5087939;28;20193;-43
2022/01/30 06:23:32;;;;;;;13.93;2.67;;;6.30;99.90;;;;;;5086325;28;20185;-40
2022/01/30 06:25:58;;;;;;;10.30;3.97;;;6.50;99.90;;;;;;5075972;28;20474;-42
2022/01/30 06:28:24;;;;;;;13.73;3.40;;;6.40;99.90;;;;;;5083172;28;20271;-43
2022/01/30 06:30:50;;;;;;;11.03;3.20;;;6.40;99.90;;;;;;5087826;28;20184;-40
2022/01/30 06:33:16;;;;;;;15.53;3.50;;;6.40;99.90;;;;;;5087935;28;20662;-40
2022/01/30 06:35:41;;;;;;;14.03;4.00;;;6.50;99.90;;;;;;5088224;28;20607;-44
2022/01/30 06:38:07;;;;;;;15.83;3.57;;;6.40;99.90;;;;;;5088232;28;20457;-43
2022/01/30 06:40:33;;;;;;;12.43;3.60;;;6.50;99.90;;;;;;5078822;28;20262;-42
2022/01/30 06:42:58;;;;;;;15.57;3.73;;;6.50;99.90;;;;;;5088096;28;20196;-43
2022/01/30 06:45:25;;;;;;;17.40;3.90;;;6.30;99.90;;;;;;5087781;28;20536;-44
2022/01/30 06:47:51;;;;;;;15.07;3.83;;;6.50;99.90;;;;;;5087623;28;20198;-41
2022/01/30 06:50:18;;;;;;;13.40;3.53;;;6.40;99.90;;;;;;5087260;28;21157;-40
2022/01/30 06:52:44;;;;;;;18.43;4.33;;;6.40;99.90;;;;;;5087960;28;20829;-43
2022/01/30 06:55:10;;;;;;;15.07;2.70;;;6.30;99.90;;;;;;5076143;28;20526;-41
2022/01/30 06:57:43;;;;;;;13.33;2.83;;;6.20;99.90;;;;;;5086602;28;20442;-44
2022/01/30 07:00:10;;;;;;;13.33;2.73;;;6.30;99.90;;;;;;5086962;28;20904;-43
2022/01/30 07:02:35;;;;;;;13.00;3.90;;;6.00;99.90;;;;;;5087634;28;20437;-41
2022/01/30 07:05:01;;;;;;;14.03;3.43;;;6.20;99.90;;;;;;5085492;28;20801;-43
2022/01/30 07:07:27;;;;;;;10.30;3.03;;;6.10;99.90;;;;;;5087702;28;20192;-43
2022/01/30 07:09:52;;;;;;;11.40;3.60;;;6.00;99.90;;;;;;5079043;28;20258;-45
2022/01/30 07:12:18;;;;;;;19.30;4.23;;;6.10;99.90;;;;;;5083896;28;20184;-42
2022/01/30 07:14:44;;;;;;;12.57;3.60;;;6.10;99.90;;;;;;5087533;28;20199;-42
2022/01/30 07:17:09;;;;;;;9.10;3.00;;;6.20;99.90;;;;;;5087471;28;20469;-41
2022/01/30 07:19:35;;;;;;;9.73;3.10;;;5.90;99.90;;;;;;5087460;28;20732;-41
2022/01/30 07:22:01;;;;;;;18.27;3.53;;;6.00;99.90;;;;;;5087301;28;20232;-42
2022/01/30 07:24:26;;;;;;;11.60;3.23;;;6.20;99.90;;;;;;5082053;28;20670;-40
2022/01/30 07:26:52;;;;;;;9.20;3.50;;;6.10;99.90;;;;;;5084694;28;20654;-41
2022/01/30 07:29:18;;;;;;;13.50;3.03;;;6.20;99.90;;;;;;5087504;28;20200;-40
2022/01/30 07:31:43;;;;;;;18.37;3.57;;;5.90;99.90;;;;;;5086538;28;20257;-41
2022/01/30 07:34:09;;;;;;;6.70;3.30;;;6.10;99.90;;;;;;5087708;28;20281;-42
2022/01/30 07:36:37;;;;;;;9.60;3.50;;;6.00;99.90;;;;;;5087283;28;20282;-42
2022/01/30 07:39:05;;;;;;;9.03;3.07;;;6.20;99.90;;;;;;5084232;28;20224;-41
2022/01/30 07:41:32;;;;;;;12.97;3.47;;;6.00;99.90;;;;;;5079409;28;20427;-40
2022/01/30 07:43:59;;;;;;;15.77;3.43;;;5.90;99.90;;;;;;5087141;28;21369;-40
2022/01/30 07:46:25;;;;;;;11.67;3.90;;;6.00;99.90;;;;;;5086072;28;20430;-40
2022/01/30 07:48:51;;;;;;;13.03;3.63;;;5.90;99.90;;;;;;5087239;28;20430;-41
2022/01/30 07:51:16;;;;;;;7.23;3.53;;;6.00;99.90;;;;;;5086551;28;20614;-41
2022/01/30 07:53:42;;;;;;;22.13;4.57;;;6.00;99.90;;;;;;5087205;28;20241;-41
2022/01/30 07:56:08;;;;;;;14.67;3.40;;;5.90;99.90;;;;;;5080619;28;20196;-42
2022/01/30 07:58:33;;;;;;;14.87;3.13;;;6.10;99.90;;;;;;5090752;28;20694;-41
2022/01/30 08:00:59;;;;;;;15.20;3.20;;;6.10;99.90;;;;;;5090725;28;20618;-40
2022/01/30 08:03:25;;;;;;;10.10;2.77;;;6.20;99.90;;;;;;5091139;28;20192;-41
2022/01/30 08:05:50;;;;;;;13.87;3.37;;;6.10;99.90;;;;;;5090150;28;20231;-40
2022/01/30 08:08:16;;;;;;;15.03;3.83;;;5.90;99.90;;;;;;5080878;28;20543;-41
2022/01/30 08:10:42;;;;;;;9.30;2.33;;;5.80;99.90;;;;;;5078544;28;20184;-41
2022/01/30 08:13:08;;;;;;;15.30;3.70;;;5.90;99.90;;;;;;5085564;28;20201;-42
2022/01/30 08:15:33;;;;;;;16.47;3.33;;;6.10;99.90;;;;;;5086398;28;20203;-40
2022/01/30 08:17:59;;;;;;;13.40;3.60;;;6.00;99.90;;;;;;5089659;28;20184;-41
2022/01/30 08:20:27;;;;;;;11.47;3.63;;;6.30;99.90;;;;;;5090148;28;20200;-40
2022/01/30 08:22:53;;;;;;;15.53;4.07;;;6.40;99.90;;;;;;5090726;28;20563;-41
2022/01/30 08:25:21;;;;;;;12.60;2.93;;;6.50;99.90;;;;;;5084539;28;20603;-40
2022/01/30 08:27:48;;;;;;;11.53;3.93;;;6.30;99.90;;;;;;5085382;28;20943;-46
2022/01/30 08:30:14;;;;;;;12.17;3.00;;;6.40;99.90;;;;;;5085997;28;20422;-40
2022/01/30 08:32:41;;;;;;;16.20;3.37;;;6.70;99.90;;;;;;5090471;28;20417;-41
2022/01/30 08:35:08;;;;;;;9.40;2.90;;;6.60;99.90;;;;;;5088750;28;20299;-40
2022/01/30 08:37:35;;;;;;;15.23;3.53;;;7.00;99.90;;;;;;5090810;28;20444;-41
2022/01/30 08:40:06;;;;;;;8.70;3.13;;;6.80;99.90;;;;;;5083254;28;20434;-41
2022/01/30 08:42:31;;;;;;;11.30;3.80;;;6.70;99.90;;;;;;5082125;28;20454;-42
2022/01/30 08:44:57;;;;;;;12.57;3.43;;;7.10;99.90;;;;;;5090283;28;20996;-44
2022/01/30 08:47:23;;;;;;;15.70;3.60;;;7.10;99.90;;;;;;5089214;28;20271;-42
2022/01/30 08:49:48;;;;;;;15.93;4.83;;;7.30;99.90;;;;;;5088198;28;20650;-41
2022/01/30 08:52:16;;;;;;;10.03;3.90;;;7.30;99.90;;;;;;5090339;28;20180;-40
2022/01/30 08:54:42;;;;;;;13.97;4.73;;;7.40;99.90;;;;;;5087115;28;20219;-43
2022/01/30 08:57:08;;;;;;;13.83;4.87;;;7.20;99.90;;;;;;5083206;28;20446;-43
2022/01/30 08:59:34;;;;;;;16.30;4.57;;;7.30;99.90;;;;;;5089356;28;20423;-40
2022/01/30 09:02:00;;;;;;;10.67;4.50;;;7.40;99.90;;;;;;5089629;28;20192;-40
2022/01/30 09:04:25;;;;;;;11.73;3.43;;;7.80;99.90;;;;;;5088658;28;20508;-41
2022/01/30 09:06:51;;;;;;;18.10;3.60;;;7.50;99.90;;;;;;5087769;28;20265;-40
2022/01/30 09:09:16;;;;;;;12.00;3.30;;;7.60;99.90;;;;;;5089079;28;20236;-41
2022/01/30 09:11:42;;;;;;;14.67;4.13;;;7.60;99.90;;;;;;5077229;28;20196;-41
2022/01/30 09:14:08;;;;;;;10.73;3.43;;;7.40;99.90;;;;;;5090106;28;20199;-41
2022/01/30 09:16:34;;;;;;;15.97;4.23;;;7.20;99.90;;;;;;5089168;28;20522;-41
2022/01/30 09:19:00;;;;;;;13.23;3.57;;;7.20;99.90;;;;;;5089167;28;20719;-40
2022/01/30 09:21:28;;;;;;;12.00;4.20;;;7.30;99.90;;;;;;5087719;28;20454;-41
2022/01/30 09:23:55;;;;;;;11.73;4.03;;;7.10;99.90;;;;;;5089589;28;20715;-42
2022/01/30 09:26:21;;;;;;;25.67;4.53;;;7.20;99.90;;;;;;5078532;28;20435;-43
2022/01/30 09:28:46;;;;;;;15.33;4.80;;;7.30;99.90;;;;;;5088680;28;20425;-41
2022/01/30 09:31:12;;;;;;;13.40;4.20;;;7.20;99.90;;;;;;5089443;28;20988;-46
2022/01/30 09:33:39;;;;;;;16.53;4.47;;;7.00;99.90;;;;;;5088150;28;20430;-40
2022/01/30 09:36:05;;;;;;;17.50;4.40;;;7.10;99.90;;;;;;5089707;28;20184;-41
2022/01/30 09:38:30;;;;;;;15.37;4.03;;;7.20;99.90;;;;;;5089059;28;20454;-40
2022/01/30 09:40:57;;;;;;;10.63;3.77;;;7.20;99.90;;;;;;5080170;28;20474;-41
2022/01/30 09:43:23;;;;;;;16.77;4.83;;;6.90;99.90;;;;;;5087575;28;20257;-40
2022/01/30 09:45:50;;;;;;;15.77;3.43;;;6.90;99.90;;;;;;5089327;28;20458;-41
2022/01/30 09:48:18;;;;;;;13.83;3.30;;;6.80;99.90;;;;;;5089017;28;20680;-42
2022/01/30 09:50:44;;;;;;;14.90;4.77;;;6.80;99.90;;;;;;5088899;28;20423;-42
2022/01/30 09:53:11;;;;;;;15.80;4.60;;;7.10;99.90;;;;;;5089075;28;20425;-40
2022/01/30 09:55:36;;;;;;;19.53;5.03;;;7.20;99.90;;;;;;5077664;28;20948;-41
2022/01/30 09:58:04;;;;;;;21.47;4.27;;;7.30;99.90;;;;;;5083821;28;20475;-41
2022/01/30 10:00:30;;;;;;;29.20;4.43;;;7.50;99.90;;;;;;5086910;28;20176;-42
2022/01/30 10:02:55;;;;;;;20.20;4.20;;;7.70;99.90;;;;;;5088404;28;20418;-41
2022/01/30 10:05:21;;;;;;;16.83;4.27;;;7.40;99.90;;;;;;5088363;28;20507;-40
2022/01/30 10:07:51;;;;;;;16.97;3.70;;;7.50;99.90;;;;;;5086592;28;20184;-41
2022/01/30 10:10:19;;;;;;;19.43;5.57;;;7.30;99.90;;;;;;5082361;28;20177;-41
2022/01/30 10:13:04;;;;;;;11.40;3.80;;;7.50;99.90;;;;;;5080662;28;20789;-41
2022/01/30 10:15:30;;;;;;;15.57;4.37;;;7.60;99.90;;;;;;5088379;28;20438;-41
2022/01/30 10:17:56;;;;;;;14.53;5.70;;;7.70;99.90;;;;;;5088302;28;20436;-42
2022/01/30 10:20:25;;;;;;;15.67;4.30;;;8.40;99.90;;;;;;5085095;28;20510;-41
2022/01/30 10:22:59;;;;;;;19.20;4.53;;;8.80;99.90;;;;;;5087608;28;20569;-41
2022/01/30 10:25:27;;;;;;;17.73;5.00;;;9.20;99.90;;;;;;5083764;28;21103;-41
2022/01/30 10:28:27;;;;;;;15.03;3.87;;;9.60;99.90;;;;;;5080398;28;20411;-46
2022/01/30 10:31:02;;;;;;;15.90;3.83;;;10.10;99.90;;;;;;5042791;28;20518;-40
2022/01/30 10:33:46;;;;;;;15.50;3.97;;;10.00;99.90;;;;;;5087091;28;20406;-44
2022/01/30 10:36:17;;;;;;;16.83;3.50;;;10.00;99.90;;;;;;5087390;28;20497;-40
2022/01/30 10:38:52;;;;;;;14.37;4.13;;;9.90;99.90;;;;;;5086845;28;20451;-41
2022/01/30 10:41:21;;;;;;;15.93;4.33;;;10.00;99.90;;;;;;5076767;28;20426;-42
2022/01/30 10:43:58;;;;;;;18.30;5.33;;;10.20;99.90;;;;;;5087413;28;20426;-44
2022/01/30 10:46:33;;;;;;;16.57;5.20;;;10.10;99.90;;;;;;5085799;28;20426;-43
2022/01/30 10:49:01;;;;;;;13.40;5.00;;;9.90;99.90;;;;;;5087105;28;20410;-41
2022/01/30 10:51:28;;;;;;;17.80;4.57;;;9.30;99.90;;;;;;5086314;28;20494;-42
2022/01/30 10:53:57;;;;;;;18.47;4.33;;;9.30;99.90;;;;;;5087397;28;20914;-40
2022/01/30 10:56:28;;;;;;;19.17;6.13;;;9.20;99.90;;;;;;5074389;28;20455;-43
2022/01/30 10:59:04;;;;;;;20.00;5.00;;;9.30;99.90;;;;;;5080376;28;20908;-43
2022/01/30 11:01:29;;;;;;;16.10;4.80;;;9.30;99.90;;;;;;5083979;28;20474;-41
2022/01/30 11:04:00;;;;;;;17.57;5.07;;;9.40;99.90;;;;;;5086548;28;20426;-42
2022/01/30 11:06:28;;;;;;;19.67;5.30;;;9.20;99.90;;;;;;5087051;28;20200;-41
2022/01/30 11:09:17;;;;;;;17.40;4.20;;;8.90;99.90;;;;;;5085271;28;20494;-43
2022/01/30 11:11:51;;;;;;;17.00;4.70;;;9.10;99.90;;;;;;5075829;28;20520;-41
2022/01/30 11:14:20;;;;;;;20.13;6.70;;;8.90;99.90;;;;;;5085663;28;20458;-44
2022/01/30 11:17:03;;;;;;;16.27;3.97;;;8.80;99.90;;;;;;5084144;28;20842;-40
2022/01/30 11:19:38;;;;;;;13.60;4.57;;;9.10;99.90;;;;;;5084570;28;20849;-42
2022/01/30 11:22:28;;;;;;;14.60;5.67;;;8.80;99.90;;;;;;5085223;28;20583;-40
2022/01/30 11:25:01;;;;;;;16.43;4.90;;;8.90;99.90;;;;;;5084331;28;20470;-40
2022/01/30 11:27:26;;;;;;;17.43;4.73;;;8.80;99.90;;;;;;5080624;28;20430;-41
2022/01/30 11:29:52;;;;;;;22.00;5.47;;;9.00;99.90;;;;;;5084578;28;20414;-40
2022/01/30 11:32:22;;;;;;;17.07;5.60;;;9.00;99.90;;;;;;5085852;28;20634;-39
2022/01/30 11:34:48;;;;;;;18.83;5.47;;;9.40;99.90;;;;;;5085990;28;20752;-44
2022/01/30 11:37:17;;;;;;;24.47;5.60;;;9.10;99.90;;;;;;5084759;28;20441;-41
2022/01/30 11:39:52;;;;;;;19.77;5.50;;;9.10;99.90;;;;;;5082694;28;20844;-40
2022/01/30 11:42:21;;;;;;;23.50;5.10;;;9.10;99.90;;;;;;5079795;28;20449;-40
2022/01/30 11:45:09;;;;;;;17.10;4.93;;;9.20;99.90;;;;;;5085104;28;20569;-40
2022/01/30 11:47:49;;;;;;;18.73;5.03;;;9.20;99.90;;;;;;5086241;28;20459;-40
2022/01/30 11:50:34;;;;;;;18.17;4.80;;;9.10;99.90;;;;;;5086051;28;20427;-40
2022/01/30 11:53:08;;;;;;;19.73;5.40;;;9.20;99.90;;;;;;5081963;28;20419;-41
2022/01/30 11:55:40;;;;;;;14.13;4.87;;;9.10;99.90;;;;;;5086026;28;20469;-41
2022/01/30 11:58:07;;;;;;;19.57;4.40;;;9.40;99.90;;;;;;5076930;28;20956;-41
2022/01/30 12:00:37;;;;;;;36.30;5.50;;;9.30;99.90;;;;;;5084485;28;20979;-40
2022/01/30 12:03:29;;;;;;;22.00;5.40;;;9.00;99.90;;;;;;5080020;28;20426;-40
2022/01/30 12:06:17;;;;;;;20.03;5.67;;;9.00;99.90;;;;;;5079279;28;20470;-40
2022/01/30 12:08:48;;;;;;;20.20;4.83;;;8.90;99.90;;;;;;5079925;28;20839;-43
2022/01/30 12:11:43;;;;;;;20.17;4.90;;;8.80;99.90;;;;;;5081488;28;20431;-40
2022/01/30 12:14:21;;;;;;;17.13;4.73;;;8.70;99.90;;;;;;5083693;28;21031;-41
2022/01/30 12:16:52;;;;;;;18.53;5.43;;;8.50;99.90;;;;;;5079814;28;20414;-40
2022/01/30 12:19:30;;;;;;;12.83;4.50;;;8.40;99.90;;;;;;5084778;28;20453;-41
2022/01/30 12:22:00;;;;;;;15.57;4.70;;;8.70;99.90;;;;;;5080864;28;20694;-42
2022/01/30 12:24:28;;;;;;;21.30;4.93;;;8.70;99.90;;;;;;5084232;28;20466;-41
2022/01/30 12:26:55;;;;;;;16.80;5.07;;;8.70;99.90;;;;;;5080123;28;20430;-45
2022/01/30 12:29:41;;;;;;;12.97;3.97;;;8.60;99.90;;;;;;5083221;28;20450;-41
2022/01/30 12:32:22;;;;;;;18.07;4.47;;;8.40;99.90;;;;;;5067429;28;20430;-42
2022/01/30 12:34:57;;;;;;;15.70;4.43;;;8.70;99.90;;;;;;5085885;28;20854;-40
2022/01/30 12:37:24;;;;;;;17.43;4.80;;;8.50;99.90;;;;;;5084635;28;20481;-40
2022/01/30 12:39:50;;;;;;;18.57;4.97;;;8.50;99.90;;;;;;5085268;28;20780;-40
2022/01/30 12:42:16;;;;;;;17.37;5.87;;;8.60;99.90;;;;;;5078852;28;21023;-40
2022/01/30 12:44:43;;;;;;;15.77;4.47;;;8.60;99.90;;;;;;5087711;28;20515;-40
2022/01/30 12:47:09;;;;;;;14.17;5.67;;;8.70;99.90;;;;;;5088687;28;20430;-41
2022/01/30 12:49:43;;;;;;;14.10;5.33;;;8.80;99.90;;;;;;5088384;28;20465;-41
2022/01/30 12:52:20;;;;;;;13.57;4.60;;;8.70;99.90;;;;;;5088877;28;20422;-43
2022/01/30 12:54:47;;;;;;;15.97;4.57;;;8.50;99.90;;;;;;5088237;28;20437;-42
2022/01/30 12:57:14;;;;;;;18.20;4.27;;;8.50;99.90;;;;;;5078188;28;20612;-40
2022/01/30 12:59:42;;;;;;;18.00;5.00;;;8.70;99.90;;;;;;5086674;28;20427;-40
2022/01/30 13:02:10;;;;;;;22.27;4.87;;;8.50;99.90;;;;;;5088752;28;20854;-42
2022/01/30 13:04:38;;;;;;;14.97;5.10;;;8.40;99.90;;;;;;5086735;28;20521;-40
2022/01/30 13:07:04;;;;;;;23.43;5.83;;;8.20;99.90;;;;;;5085839;28;21082;-41
2022/01/30 13:09:32;;;;;;;15.60;5.30;;;8.30;99.90;;;;;;5088772;28;20771;-42
2022/01/30 13:12:00;;;;;;;15.53;5.20;;;8.30;99.90;;;;;;5082968;28;20481;-39
2022/01/30 13:14:37;;;;;;;20.30;4.83;;;8.50;99.90;;;;;;5087171;28;20427;-42
2022/01/30 13:17:04;;;;;;;13.27;4.10;;;8.40;99.90;;;;;;5089356;28;20525;-42
2022/01/30 13:19:35;;;;;;;19.63;4.63;;;8.30;99.90;;;;;;5089454;28;20472;-40
2022/01/30 13:22:03;;;;;;;21.20;4.73;;;8.20;99.90;;;;;;5088978;28;20418;-40
2022/01/30 13:24:30;;;;;;;16.13;4.50;;;8.40;99.90;;;;;;5089436;28;20549;-44
2022/01/30 13:27:07;;;;;;;16.20;5.13;;;8.20;99.90;;;;;;5083459;28;20514;-39
2022/01/30 13:29:35;;;;;;;17.43;5.13;;;7.90;99.90;;;;;;5081096;28;20410;-40
2022/01/30 13:32:07;;;;;;;18.73;4.50;;;7.80;99.90;;;;;;5088953;28;20453;-39
2022/01/30 13:34:34;;;;;;;13.50;4.03;;;7.90;99.90;;;;;;5089567;28;20422;-41
2022/01/30 13:37:20;;;;;;;13.43;5.37;;;7.90;99.90;;;;;;5089467;28;20522;-41
2022/01/30 13:40:10;;;;;;;18.30;5.10;;;7.80;99.90;;;;;;5089006;28;20526;-40
2022/01/30 13:47:59;;;;;;;15.63;4.73;;;8.30;99.90;;;;;;5087035;28;20410;-41
2022/01/30 13:50:39;;;;;;;21.93;5.13;;;8.20;99.90;;;;;;5088339;28;20475;-40
2022/01/30 13:53:18;;;;;;;18.30;5.10;;;8.40;99.90;;;;;;5088501;28;20968;-41
2022/01/30 13:56:17;;;;;;;19.37;5.07;;;8.20;99.90;;;;;;5088515;28;20484;-40
2022/01/30 13:58:44;;;;;;;16.30;4.30;;;8.00;99.90;;;;;;5070936;28;20455;-40
2022/01/30 14:01:11;;;;;;;17.20;5.03;;;8.00;99.90;;;;;;5086890;28;20458;-40
2022/01/30 14:03:39;;;;;;;17.97;4.37;;;7.80;99.90;;;;;;5088974;28;20572;-40